Barranquilla, Colombia

2:50 AM COT en Septiembre 04, 2015 (GMT -0500)
Ernesto Cortissoz | | Change Station
CLOSE
Current Station
Aeropuerto
Location: Barranquilla,
Altura: 98 ft
Estaciones meteorológicas cercanas

Alt 98 ft 10.88 °N, 74.78 °W | Updated 50 minutes ago

Scattered Clouds
Nubes dispersas
82 ° F
Sensación térmica 92 ° F
N
5
Viento Variable Viento desde Norte

Hoy
Alta -- | Baja -- ° F
--% Posibilidad de precipitaciones
Ayer
Alta -- | Baja -- ° F
Precip. -- pul
5:49 AM 6:06 PM
Gibosa menguante, 62% visible
Presión 29.83 pul
Visibilidad 6.2 Millas
Nubes Nubes dispersas 1200 ft
Índice de calor 92 ° F
Punto de rocío 79 ° F
Humedad 89%
Precipitaciones 0.00 pul
Espesor de la nieve No disponible.
UV 0 de una escala de 12
Polen No disponible.
Calidad del aire No disponible.
Flu Activity No disponible.
METAR SKBQ 040700Z 01004KT 9999 SCT012 28/26 A2983
Presión 29.83 pul
Visibilidad 6.2 Millas
Nubes Nubes dispersas 1200 ft
Índice de calor 92 ° F
Punto de rocío 79 ° F
Humedad 89%
Precipitaciones 0.00 pul
Espesor de la nieve No disponible.
UV 0 de una escala de 12
Polen No disponible.
Calidad del aire No disponible.
Flu Activity No disponible.
METAR SKBQ 040700Z 01004KT 9999 SCT012 28/26 A2983

10-Day Weather Forecast

×

Almanac

Astronomía

Sep. 04, 2015 Salida Puesta
Hora real
Crepúsculo civil
Crepúsculo náutico
Crepúsculo astronómico
Luna
Horas de luz
Horas de luz
Tomorrow will be .
, % of the Moon is Illuminated

Extremos de hoy

Máximos del país Bajas del país

Community

WunderPhotos

Upload Photos

1,852,132 ¡fotos cargadas!

WunderBlogs® & News

Nearby

Calidad del aire

  Calidad del aire Índice AQ Contaminante
Not available.

Grosos de nieve

Estación Profundido Altura

Actividad de terremotos

Ciudad Distance Mag. Tiempo y dato
Magnitud mínima muestra es 2,5.

Temperaturas de aguas costeras

Lugar Temperatura

Stations

Estaciones meteorológicas cercanas

Ubicación de la estación Temp. Vientos helados Punto de rocío Humedad Viento Precip. Alt Actualizado Tipo